To NAV CANADA Home Page Login to a new session Search on AWWS site Feedback and Comments Disclaimer Vers la page française équivalente Tips FAQ What's new on the site To the Forecasts and Observations / NOTAM section To "File a Flight Plan" website Publications and other links Update of the User's profile FIC Telephone Numbers My Weather Data Folder Route Weather Data Regional Weather Data Local Weather Data To the Forecasts and Observations / NOTAM section
Request Generated 03/23/2017 at 00:12:13 UTC . Weather information available at that time is displayed.

METAR/TAF

LONDON/ON    

METAR CYXU 230000Z 30007KT 15SM FEW250 M06/M11 A3052 RMK CI1 SLP355=
METAR CYXU 222300Z 31007KT 15SM FEW030 M04/M11 A3051 RMK SC1 SLP350=
METAR CYXU 222200Z 31013KT 15SM FEW030 M03/M11 A3050 RMK CF1 SLP347=

TAF CYXU 222338Z 2300/2324 32008KT P6SM FEW030
BECMG 2307/2308 VRB03KT
FM231600 16008KT P6SM BKN140
FM232000 16010KT P6SM OVC090
RMK NXT FCST BY 230600Z=
Your time UTC time
Weather data provided by Environment Canada and NAV CANADA